sensor_id;sensor_type;location;lat;lon;timestamp;P1;durP1;ratioP1;P2;durP2;ratioP2
73684;SDS011;61985;51.070;14.064;2023-07-13T00:01:15;6.03;;;2.25;;
73684;SDS011;61985;51.070;14.064;2023-07-13T00:03:41;4.68;;;2.17;;
73684;SDS011;61985;51.070;14.064;2023-07-13T00:06:07;4.93;;;2.30;;
73684;SDS011;61985;51.070;14.064;2023-07-13T00:08:33;3.03;;;2.15;;
73684;SDS011;61985;51.070;14.064;2023-07-13T00:11:00;3.45;;;2.15;;
73684;SDS011;61985;51.070;14.064;2023-07-13T00:13:26;3.78;;;2.17;;
73684;SDS011;61985;51.070;14.064;2023-07-13T00:15:51;2.92;;;2.00;;
73684;SDS011;61985;51.070;14.064;2023-07-13T00:18:18;3.70;;;2.15;;
73684;SDS011;61985;51.070;14.064;2023-07-13T00:20:45;5.78;;;2.55;;
73684;SDS011;61985;51.070;14.064;2023-07-13T00:23:10;6.55;;;2.20;;
73684;SDS011;61985;51.070;14.064;2023-07-13T00:25:36;2.47;;;1.95;;
73684;SDS011;61985;51.070;14.064;2023-07-13T00:28:02;3.85;;;2.03;;
73684;SDS011;61985;51.070;14.064;2023-07-13T00:30:27;2.78;;;2.00;;
73684;SDS011;61985;51.070;14.064;2023-07-13T00:32:53;6.65;;;2.67;;
73684;SDS011;61985;51.070;14.064;2023-07-13T00:35:18;4.55;;;2.05;;
73684;SDS011;61985;51.070;14.064;2023-07-13T00:37:44;6.60;;;2.08;;
73684;SDS011;61985;51.070;14.064;2023-07-13T00:40:10;5.47;;;1.92;;
73684;SDS011;61985;51.070;14.064;2023-07-13T00:42:38;7.20;;;2.10;;
73684;SDS011;61985;51.070;14.064;2023-07-13T00:46:08;6.25;;;2.47;;
73684;SDS011;61985;51.070;14.064;2023-07-13T00:47:49;12.23;;;2.65;;
73684;SDS011;61985;51.070;14.064;2023-07-13T00:50:15;5.32;;;2.15;;
73684;SDS011;61985;51.070;14.064;2023-07-13T00:52:44;4.43;;;2.92;;
73684;SDS011;61985;51.070;14.064;2023-07-13T00:55:12;8.90;;;2.65;;
73684;SDS011;61985;51.070;14.064;2023-07-13T05:28:48;9.43;;;4.53;;
73684;SDS011;61985;51.070;14.064;2023-07-13T05:44:11;8.70;;;4.05;;
73684;SDS011;61985;51.070;14.064;2023-07-13T05:46:47;8.18;;;4.20;;
73684;SDS011;61985;51.070;14.064;2023-07-13T05:49:19;7.05;;;4.10;;
73684;SDS011;61985;51.070;14.064;2023-07-13T05:51:45;9.70;;;4.00;;
73684;SDS011;61985;51.070;14.064;2023-07-13T05:54:10;6.72;;;4.05;;
73684;SDS011;61985;51.070;14.064;2023-07-13T05:56:36;10.82;;;3.97;;
73684;SDS011;61985;51.070;14.064;2023-07-13T05:59:04;6.63;;;4.00;;
73684;SDS011;61985;51.070;14.064;2023-07-13T06:01:37;9.23;;;3.83;;
73684;SDS011;61985;51.070;14.064;2023-07-13T06:04:06;9.52;;;3.88;;
73684;SDS011;61985;51.070;14.064;2023-07-13T06:06:34;10.25;;;3.58;;
73684;SDS011;61985;51.070;14.064;2023-07-13T06:09:02;11.10;;;4.05;;
73684;SDS011;61985;51.070;14.064;2023-07-13T06:11:30;6.85;;;3.40;;
73684;SDS011;61985;51.070;14.064;2023-07-13T06:13:56;6.78;;;3.45;;
73684;SDS011;61985;51.070;14.064;2023-07-13T06:16:25;5.68;;;3.40;;
73684;SDS011;61985;51.070;14.064;2023-07-13T06:18:50;6.50;;;3.28;;
73684;SDS011;61985;51.070;14.064;2023-07-13T06:21:16;10.55;;;4.75;;
73684;SDS011;61985;51.070;14.064;2023-07-13T06:23:52;9.27;;;3.90;;
73684;SDS011;61985;51.070;14.064;2023-07-13T06:26:18;33.33;;;4.40;;
73684;SDS011;61985;51.070;14.064;2023-07-13T06:28:45;11.57;;;4.32;;
73684;SDS011;61985;51.070;14.064;2023-07-13T06:31:11;7.95;;;3.88;;
73684;SDS011;61985;51.070;14.064;2023-07-13T06:33:38;8.15;;;3.85;;
73684;SDS011;61985;51.070;14.064;2023-07-13T06:36:04;7.10;;;3.80;;
73684;SDS011;61985;51.070;14.064;2023-07-13T06:38:31;6.90;;;3.60;;
73684;SDS011;61985;51.070;14.064;2023-07-13T06:40:57;7.65;;;3.70;;
73684;SDS011;61985;51.070;14.064;2023-07-13T06:43:22;9.20;;;3.53;;
73684;SDS011;61985;51.070;14.064;2023-07-13T06:45:50;4.90;;;3.60;;
73684;SDS011;61985;51.070;14.064;2023-07-13T06:48:16;6.13;;;3.90;;
73684;SDS011;61985;51.070;14.064;2023-07-13T06:50:43;6.55;;;3.83;;
73684;SDS011;61985;51.070;14.064;2023-07-13T06:53:09;5.97;;;3.90;;
73684;SDS011;61985;51.070;14.064;2023-07-13T06:55:35;7.35;;;3.50;;
73684;SDS011;61985;51.070;14.064;2023-07-13T06:58:01;6.25;;;3.75;;
73684;SDS011;61985;51.070;14.064;2023-07-13T07:00:26;6.00;;;3.60;;
73684;SDS011;61985;51.070;14.064;2023-07-13T07:02:51;5.70;;;3.63;;
73684;SDS011;61985;51.070;14.064;2023-07-13T07:05:17;6.47;;;3.90;;
73684;SDS011;61985;51.070;14.064;2023-07-13T07:07:42;8.30;;;3.70;;
73684;SDS011;61985;51.070;14.064;2023-07-13T07:10:07;6.78;;;3.70;;
73684;SDS011;61985;51.070;14.064;2023-07-13T07:12:33;9.05;;;3.97;;
73684;SDS011;61985;51.070;14.064;2023-07-13T07:14:58;9.40;;;4.00;;
73684;SDS011;61985;51.070;14.064;2023-07-13T07:17:23;6.05;;;3.47;;
73684;SDS011;61985;51.070;14.064;2023-07-13T07:19:50;4.22;;;3.15;;
73684;SDS011;61985;51.070;14.064;2023-07-13T07:22:15;5.13;;;3.08;;
73684;SDS011;61985;51.070;14.064;2023-07-13T07:24:41;5.57;;;2.60;;
73684;SDS011;61985;51.070;14.064;2023-07-13T07:27:06;7.05;;;3.00;;
73684;SDS011;61985;51.070;14.064;2023-07-13T07:29:31;7.30;;;3.28;;
73684;SDS011;61985;51.070;14.064;2023-07-13T07:31:58;5.10;;;3.50;;
73684;SDS011;61985;51.070;14.064;2023-07-13T07:34:24;12.68;;;3.10;;
73684;SDS011;61985;51.070;14.064;2023-07-13T07:36:50;6.10;;;3.17;;
73684;SDS011;61985;51.070;14.064;2023-07-13T07:39:15;5.70;;;3.20;;
73684;SDS011;61985;51.070;14.064;2023-07-13T07:41:41;7.00;;;3.35;;
73684;SDS011;61985;51.070;14.064;2023-07-13T07:44:06;5.38;;;3.30;;
73684;SDS011;61985;51.070;14.064;2023-07-13T07:46:34;6.95;;;3.00;;
73684;SDS011;61985;51.070;14.064;2023-07-13T07:49:00;5.00;;;2.85;;
73684;SDS011;61985;51.070;14.064;2023-07-13T07:51:25;4.28;;;2.83;;
73684;SDS011;61985;51.070;14.064;2023-07-13T07:53:51;9.70;;;2.88;;
73684;SDS011;61985;51.070;14.064;2023-07-13T07:56:16;10.15;;;2.50;;
73684;SDS011;61985;51.070;14.064;2023-07-13T07:58:42;5.75;;;2.75;;
73684;SDS011;61985;51.070;14.064;2023-07-13T08:01:08;3.67;;;2.28;;
73684;SDS011;61985;51.070;14.064;2023-07-13T08:03:33;7.22;;;2.70;;
73684;SDS011;61985;51.070;14.064;2023-07-13T08:05:58;6.03;;;2.50;;
73684;SDS011;61985;51.070;14.064;2023-07-13T08:08:24;4.40;;;2.47;;
73684;SDS011;61985;51.070;14.064;2023-07-13T08:10:50;3.22;;;2.10;;
73684;SDS011;61985;51.070;14.064;2023-07-13T08:13:15;4.53;;;2.20;;
73684;SDS011;61985;51.070;14.064;2023-07-13T08:15:40;5.22;;;2.05;;
73684;SDS011;61985;51.070;14.064;2023-07-13T08:18:06;5.43;;;2.17;;
73684;SDS011;61985;51.070;14.064;2023-07-13T08:20:33;4.60;;;1.90;;
73684;SDS011;61985;51.070;14.064;2023-07-13T08:22:58;5.13;;;1.90;;
73684;SDS011;61985;51.070;14.064;2023-07-13T08:25:24;7.55;;;2.08;;
73684;SDS011;61985;51.070;14.064;2023-07-13T08:27:49;4.85;;;2.10;;
73684;SDS011;61985;51.070;14.064;2023-07-13T08:30:14;3.53;;;2.08;;
73684;SDS011;61985;51.070;14.064;2023-07-13T08:32:40;4.50;;;2.10;;
73684;SDS011;61985;51.070;14.064;2023-07-13T08:35:05;5.22;;;2.40;;
73684;SDS011;61985;51.070;14.064;2023-07-13T08:37:31;5.50;;;2.10;;
73684;SDS011;61985;51.070;14.064;2023-07-13T08:39:56;5.53;;;2.08;;
73684;SDS011;61985;51.070;14.064;2023-07-13T08:47:48;6.53;;;1.90;;
73684;SDS011;61985;51.070;14.064;2023-07-13T08:50:19;3.10;;;1.70;;
73684;SDS011;61985;51.070;14.064;2023-07-13T08:52:49;3.90;;;1.80;;
73684;SDS011;61985;51.070;14.064;2023-07-13T08:55:21;5.38;;;1.85;;
73684;SDS011;61985;51.070;14.064;2023-07-13T08:58:05;4.75;;;2.20;;
73684;SDS011;61985;51.070;14.064;2023-07-13T09:00:52;3.78;;;1.83;;
73684;SDS011;61985;51.070;14.064;2023-07-13T09:03:27;4.07;;;1.75;;
73684;SDS011;61985;51.070;14.064;2023-07-13T09:06:00;11.55;;;2.50;;
73684;SDS011;61985;51.070;14.064;2023-07-13T09:11:26;5.07;;;2.00;;
73684;SDS011;61985;51.070;14.064;2023-07-13T09:16:53;3.75;;;2.20;;
73684;SDS011;61985;51.070;14.064;2023-07-13T09:19:21;5.40;;;1.90;;
73684;SDS011;61985;51.070;14.064;2023-07-13T09:21:53;4.78;;;1.80;;
73684;SDS011;61985;51.070;14.064;2023-07-13T09:24:29;4.32;;;1.70;;
73684;SDS011;61985;51.070;14.064;2023-07-13T09:27:01;6.18;;;2.22;;
73684;SDS011;61985;51.070;14.064;2023-07-13T09:29:42;4.50;;;1.50;;
73684;SDS011;61985;51.070;14.064;2023-07-13T09:32:13;4.15;;;1.70;;
73684;SDS011;61985;51.070;14.064;2023-07-13T09:34:42;8.00;;;2.10;;
73684;SDS011;61985;51.070;14.064;2023-07-13T09:37:07;4.43;;;1.73;;
73684;SDS011;61985;51.070;14.064;2023-07-13T09:39:34;5.35;;;1.92;;
73684;SDS011;61985;51.070;14.064;2023-07-13T09:42:19;3.38;;;1.90;;
73684;SDS011;61985;51.070;14.064;2023-07-13T09:45:00;6.10;;;2.25;;
73684;SDS011;61985;51.070;14.064;2023-07-13T09:47:31;6.53;;;1.83;;
73684;SDS011;61985;51.070;14.064;2023-07-13T09:50:03;2.77;;;1.63;;
73684;SDS011;61985;51.070;14.064;2023-07-13T09:52:41;5.13;;;1.80;;
73684;SDS011;61985;51.070;14.064;2023-07-13T09:57:49;3.05;;;1.60;;
73684;SDS011;61985;51.070;14.064;2023-07-13T10:00:23;4.15;;;1.67;;
73684;SDS011;61985;51.070;14.064;2023-07-13T10:02:57;5.40;;;1.98;;
73684;SDS011;61985;51.070;14.064;2023-07-13T10:05:36;6.25;;;1.90;;
73684;SDS011;61985;51.070;14.064;2023-07-13T10:08:09;4.30;;;1.80;;
73684;SDS011;61985;51.070;14.064;2023-07-13T10:10:43;5.65;;;2.05;;
73684;SDS011;61985;51.070;14.064;2023-07-13T10:16:09;4.32;;;2.00;;
73684;SDS011;61985;51.070;14.064;2023-07-13T10:18:45;4.15;;;1.50;;
73684;SDS011;61985;51.070;14.064;2023-07-13T10:21:18;7.95;;;1.85;;
73684;SDS011;61985;51.070;14.064;2023-07-13T10:23:54;5.68;;;1.73;;
73684;SDS011;61985;51.070;14.064;2023-07-13T10:26:32;4.75;;;1.80;;
73684;SDS011;61985;51.070;14.064;2023-07-13T10:29:02;5.20;;;1.70;;
73684;SDS011;61985;51.070;14.064;2023-07-13T10:31:32;6.22;;;1.77;;
73684;SDS011;61985;51.070;14.064;2023-07-13T10:33:59;7.10;;;1.85;;
73684;SDS011;61985;51.070;14.064;2023-07-13T10:36:30;3.78;;;1.95;;
73684;SDS011;61985;51.070;14.064;2023-07-13T10:38:56;5.53;;;1.85;;
73684;SDS011;61985;51.070;14.064;2023-07-13T10:41:24;8.77;;;2.08;;
73684;SDS011;61985;51.070;14.064;2023-07-13T10:43:53;3.03;;;1.70;;
73684;SDS011;61985;51.070;14.064;2023-07-13T10:46:20;5.13;;;2.17;;
73684;SDS011;61985;51.070;14.064;2023-07-13T10:48:49;4.28;;;2.08;;
73684;SDS011;61985;51.070;14.064;2023-07-13T10:51:18;5.97;;;1.90;;
73684;SDS011;61985;51.070;14.064;2023-07-13T10:53:47;6.20;;;2.08;;
73684;SDS011;61985;51.070;14.064;2023-07-13T10:56:32;5.00;;;1.92;;
73684;SDS011;61985;51.070;14.064;2023-07-13T11:01:54;3.40;;;1.80;;
73684;SDS011;61985;51.070;14.064;2023-07-13T11:04:21;5.18;;;1.92;;
73684;SDS011;61985;51.070;14.064;2023-07-13T11:06:52;3.17;;;1.80;;
73684;SDS011;61985;51.070;14.064;2023-07-13T11:09:39;2.60;;;1.70;;
73684;SDS011;61985;51.070;14.064;2023-07-13T11:20:55;3.47;;;1.45;;
73684;SDS011;61985;51.070;14.064;2023-07-13T11:23:08;3.47;;;1.63;;
73684;SDS011;61985;51.070;14.064;2023-07-13T11:25:42;3.75;;;1.50;;
73684;SDS011;61985;51.070;14.064;2023-07-13T11:30:41;4.45;;;1.65;;
73684;SDS011;61985;51.070;14.064;2023-07-13T11:33:13;3.97;;;1.70;;
73684;SDS011;61985;51.070;14.064;2023-07-13T11:38:23;6.15;;;1.88;;
73684;SDS011;61985;51.070;14.064;2023-07-13T11:41:26;4.57;;;1.55;;
73684;SDS011;61985;51.070;14.064;2023-07-13T11:43:54;4.85;;;1.58;;
73684;SDS011;61985;51.070;14.064;2023-07-13T11:46:31;7.53;;;1.90;;
73684;SDS011;61985;51.070;14.064;2023-07-13T11:48:59;4.97;;;1.60;;
73684;SDS011;61985;51.070;14.064;2023-07-13T11:51:28;4.88;;;2.03;;
73684;SDS011;61985;51.070;14.064;2023-07-13T11:53:56;3.97;;;1.63;;
73684;SDS011;61985;51.070;14.064;2023-07-13T11:56:25;6.70;;;1.30;;
73684;SDS011;61985;51.070;14.064;2023-07-13T11:58:54;3.15;;;1.50;;
73684;SDS011;61985;51.070;14.064;2023-07-13T12:01:26;5.32;;;1.65;;
73684;SDS011;61985;51.070;14.064;2023-07-13T12:03:57;6.75;;;2.28;;
73684;SDS011;61985;51.070;14.064;2023-07-13T12:06:27;2.67;;;1.40;;
73684;SDS011;61985;51.070;14.064;2023-07-13T12:09:02;5.13;;;1.83;;
73684;SDS011;61985;51.070;14.064;2023-07-13T12:11:29;4.78;;;1.65;;
73684;SDS011;61985;51.070;14.064;2023-07-13T12:13:55;6.57;;;1.55;;
73684;SDS011;61985;51.070;14.064;2023-07-13T12:18:47;6.57;;;1.70;;
73684;SDS011;61985;51.070;14.064;2023-07-13T12:21:14;5.45;;;1.50;;
73684;SDS011;61985;51.070;14.064;2023-07-13T12:23:43;4.47;;;1.50;;
73684;SDS011;61985;51.070;14.064;2023-07-13T12:26:12;2.70;;;1.55;;
73684;SDS011;61985;51.070;14.064;2023-07-13T12:28:39;2.78;;;1.58;;
73684;SDS011;61985;51.070;14.064;2023-07-13T12:34:10;6.30;;;1.80;;
73684;SDS011;61985;51.070;14.064;2023-07-13T12:36:46;4.35;;;2.15;;
73684;SDS011;61985;51.070;14.064;2023-07-13T12:41:46;4.82;;;1.73;;
73684;SDS011;61985;51.070;14.064;2023-07-13T12:44:15;4.53;;;1.80;;
73684;SDS011;61985;51.070;14.064;2023-07-13T12:46:54;3.55;;;1.60;;
73684;SDS011;61985;51.070;14.064;2023-07-13T12:49:30;4.15;;;1.65;;
73684;SDS011;61985;51.070;14.064;2023-07-13T12:52:00;5.75;;;1.70;;
73684;SDS011;61985;51.070;14.064;2023-07-13T12:54:27;3.75;;;1.67;;
73684;SDS011;61985;51.070;14.064;2023-07-13T12:56:54;4.93;;;1.70;;
73684;SDS011;61985;51.070;14.064;2023-07-13T12:59:23;3.97;;;1.73;;
73684;SDS011;61985;51.070;14.064;2023-07-13T13:01:51;4.18;;;1.73;;
73684;SDS011;61985;51.070;14.064;2023-07-13T13:04:18;1.98;;;1.42;;
73684;SDS011;61985;51.070;14.064;2023-07-13T13:06:46;5.30;;;1.63;;
73684;SDS011;61985;51.070;14.064;2023-07-13T13:09:13;7.00;;;2.00;;
73684;SDS011;61985;51.070;14.064;2023-07-13T13:11:40;4.78;;;1.70;;
73684;SDS011;61985;51.070;14.064;2023-07-13T13:14:06;4.90;;;1.70;;
73684;SDS011;61985;51.070;14.064;2023-07-13T13:16:37;14.82;;;1.90;;
73684;SDS011;61985;51.070;14.064;2023-07-13T13:19:12;3.20;;;1.52;;
73684;SDS011;61985;51.070;14.064;2023-07-13T13:21:40;4.85;;;1.80;;
73684;SDS011;61985;51.070;14.064;2023-07-13T13:24:14;4.60;;;1.65;;
73684;SDS011;61985;51.070;14.064;2023-07-13T13:26:45;4.85;;;1.40;;
73684;SDS011;61985;51.070;14.064;2023-07-13T13:29:14;2.72;;;1.45;;
73684;SDS011;61985;51.070;14.064;2023-07-13T13:31:40;6.28;;;1.88;;
73684;SDS011;61985;51.070;14.064;2023-07-13T13:34:15;5.03;;;1.50;;
73684;SDS011;61985;51.070;14.064;2023-07-13T13:36:42;4.85;;;1.80;;
73684;SDS011;61985;51.070;14.064;2023-07-13T13:41:46;6.25;;;1.80;;
73684;SDS011;61985;51.070;14.064;2023-07-13T13:44:14;6.88;;;1.80;;
73684;SDS011;61985;51.070;14.064;2023-07-13T13:46:40;3.22;;;1.60;;
73684;SDS011;61985;51.070;14.064;2023-07-13T13:49:11;4.28;;;1.65;;
73684;SDS011;61985;51.070;14.064;2023-07-13T13:51:39;4.85;;;1.65;;
73684;SDS011;61985;51.070;14.064;2023-07-13T13:54:05;4.70;;;1.58;;
73684;SDS011;61985;51.070;14.064;2023-07-13T13:56:35;5.70;;;1.70;;
73684;SDS011;61985;51.070;14.064;2023-07-13T13:59:00;3.28;;;1.55;;
73684;SDS011;61985;51.070;14.064;2023-07-13T14:01:25;3.90;;;1.52;;
73684;SDS011;61985;51.070;14.064;2023-07-13T14:03:51;5.32;;;1.50;;
73684;SDS011;61985;51.070;14.064;2023-07-13T14:06:16;3.40;;;1.40;;
73684;SDS011;61985;51.070;14.064;2023-07-13T14:08:42;6.45;;;1.40;;
73684;SDS011;61985;51.070;14.064;2023-07-13T14:11:12;3.50;;;1.63;;
73684;SDS011;61985;51.070;14.064;2023-07-13T14:13:40;4.95;;;1.73;;
73684;SDS011;61985;51.070;14.064;2023-07-13T14:16:12;6.78;;;1.40;;
73684;SDS011;61985;51.070;14.064;2023-07-13T14:18:42;5.53;;;1.42;;
73684;SDS011;61985;51.070;14.064;2023-07-13T14:21:17;3.72;;;1.30;;
73684;SDS011;61985;51.070;14.064;2023-07-13T14:23:45;2.90;;;1.50;;
73684;SDS011;61985;51.070;14.064;2023-07-13T14:26:12;6.35;;;2.90;;
73684;SDS011;61985;51.070;14.064;2023-07-13T14:28:49;4.53;;;1.63;;
73684;SDS011;61985;51.070;14.064;2023-07-13T14:31:17;3.70;;;1.60;;
73684;SDS011;61985;51.070;14.064;2023-07-13T14:33:44;4.60;;;1.52;;
73684;SDS011;61985;51.070;14.064;2023-07-13T14:36:25;3.58;;;1.20;;
73684;SDS011;61985;51.070;14.064;2023-07-13T14:38:53;3.17;;;1.40;;
73684;SDS011;61985;51.070;14.064;2023-07-13T14:41:19;2.45;;;1.65;;
73684;SDS011;61985;51.070;14.064;2023-07-13T14:43:45;3.30;;;1.55;;
73684;SDS011;61985;51.070;14.064;2023-07-13T14:46:29;4.05;;;1.60;;
73684;SDS011;61985;51.070;14.064;2023-07-13T14:49:02;3.22;;;1.42;;
73684;SDS011;61985;51.070;14.064;2023-07-13T14:51:28;6.72;;;1.48;;
73684;SDS011;61985;51.070;14.064;2023-07-13T14:53:54;5.40;;;1.50;;
73684;SDS011;61985;51.070;14.064;2023-07-13T14:56:20;3.65;;;1.63;;
73684;SDS011;61985;51.070;14.064;2023-07-13T14:58:45;2.85;;;1.40;;
73684;SDS011;61985;51.070;14.064;2023-07-13T15:01:14;4.65;;;1.30;;
73684;SDS011;61985;51.070;14.064;2023-07-13T15:03:43;4.03;;;1.48;;
73684;SDS011;61985;51.070;14.064;2023-07-13T15:06:11;4.95;;;1.60;;
73684;SDS011;61985;51.070;14.064;2023-07-13T15:08:38;3.53;;;1.50;;
73684;SDS011;61985;51.070;14.064;2023-07-13T15:11:05;5.18;;;1.40;;
73684;SDS011;61985;51.070;14.064;2023-07-13T15:13:31;3.35;;;1.67;;
73684;SDS011;61985;51.070;14.064;2023-07-13T15:15:57;2.75;;;1.30;;
73684;SDS011;61985;51.070;14.064;2023-07-13T15:18:22;2.33;;;1.40;;
73684;SDS011;61985;51.070;14.064;2023-07-13T15:20:50;4.95;;;1.50;;
73684;SDS011;61985;51.070;14.064;2023-07-13T15:23:17;5.57;;;1.50;;
73684;SDS011;61985;51.070;14.064;2023-07-13T15:25:43;2.40;;;1.20;;
73684;SDS011;61985;51.070;14.064;2023-07-13T15:28:10;3.55;;;1.38;;
73684;SDS011;61985;51.070;14.064;2023-07-13T15:30:43;5.57;;;1.58;;
73684;SDS011;61985;51.070;14.064;2023-07-13T15:33:15;8.32;;;1.58;;
73684;SDS011;61985;51.070;14.064;2023-07-13T15:35:43;2.70;;;1.50;;
73684;SDS011;61985;51.070;14.064;2023-07-13T15:38:14;3.92;;;1.40;;
73684;SDS011;61985;51.070;14.064;2023-07-13T15:40:41;4.13;;;1.58;;
73684;SDS011;61985;51.070;14.064;2023-07-13T15:43:09;3.15;;;1.55;;
73684;SDS011;61985;51.070;14.064;2023-07-13T15:45:36;4.88;;;1.52;;
73684;SDS011;61985;51.070;14.064;2023-07-13T15:48:05;3.33;;;1.45;;
73684;SDS011;61985;51.070;14.064;2023-07-13T15:50:46;5.32;;;1.60;;
73684;SDS011;61985;51.070;14.064;2023-07-13T15:53:15;1.98;;;1.30;;
73684;SDS011;61985;51.070;14.064;2023-07-13T15:55:44;5.45;;;1.42;;
73684;SDS011;61985;51.070;14.064;2023-07-13T15:58:11;4.20;;;1.20;;
73684;SDS011;61985;51.070;14.064;2023-07-13T16:00:39;3.33;;;1.20;;
73684;SDS011;61985;51.070;14.064;2023-07-13T16:03:05;4.18;;;1.30;;
73684;SDS011;61985;51.070;14.064;2023-07-13T16:05:31;2.97;;;1.33;;
73684;SDS011;61985;51.070;14.064;2023-07-13T16:07:56;4.40;;;1.50;;
73684;SDS011;61985;51.070;14.064;2023-07-13T16:10:44;3.95;;;1.20;;
73684;SDS011;61985;51.070;14.064;2023-07-13T16:13:10;3.05;;;1.33;;
73684;SDS011;61985;51.070;14.064;2023-07-13T16:15:40;5.05;;;1.30;;
73684;SDS011;61985;51.070;14.064;2023-07-13T16:18:09;3.75;;;1.20;;
73684;SDS011;61985;51.070;14.064;2023-07-13T16:20:36;3.40;;;1.20;;
73684;SDS011;61985;51.070;14.064;2023-07-13T16:23:03;2.00;;;1.00;;
73684;SDS011;61985;51.070;14.064;2023-07-13T16:25:29;3.42;;;1.20;;
73684;SDS011;61985;51.070;14.064;2023-07-13T16:27:55;2.45;;;1.00;;
73684;SDS011;61985;51.070;14.064;2023-07-13T16:30:25;5.85;;;1.05;;
73684;SDS011;61985;51.070;14.064;2023-07-13T16:32:52;1.63;;;1.00;;
73684;SDS011;61985;51.070;14.064;2023-07-13T16:35:21;5.35;;;1.00;;
73684;SDS011;61985;51.070;14.064;2023-07-13T16:37:47;2.58;;;1.10;;
73684;SDS011;61985;51.070;14.064;2023-07-13T16:40:27;2.78;;;1.10;;
73684;SDS011;61985;51.070;14.064;2023-07-13T16:42:56;1.67;;;0.90;;
73684;SDS011;61985;51.070;14.064;2023-07-13T16:45:23;2.28;;;1.00;;
73684;SDS011;61985;51.070;14.064;2023-07-13T16:47:50;3.13;;;0.95;;
73684;SDS011;61985;51.070;14.064;2023-07-13T16:50:19;3.20;;;0.93;;
73684;SDS011;61985;51.070;14.064;2023-07-13T16:52:46;1.48;;;0.98;;
73684;SDS011;61985;51.070;14.064;2023-07-13T16:55:14;2.13;;;0.90;;
73684;SDS011;61985;51.070;14.064;2023-07-13T16:57:41;3.17;;;0.98;;
73684;SDS011;61985;51.070;14.064;2023-07-13T17:00:27;4.53;;;1.10;;
73684;SDS011;61985;51.070;14.064;2023-07-13T17:03:02;4.32;;;1.00;;
73684;SDS011;61985;51.070;14.064;2023-07-13T17:05:34;1.73;;;1.00;;
73684;SDS011;61985;51.070;14.064;2023-07-13T17:08:15;2.00;;;0.90;;
73684;SDS011;61985;51.070;14.064;2023-07-13T17:10:46;2.42;;;1.00;;
73684;SDS011;61985;51.070;14.064;2023-07-13T17:13:15;3.20;;;1.08;;
73684;SDS011;61985;51.070;14.064;2023-07-13T17:15:42;2.80;;;0.90;;
73684;SDS011;61985;51.070;14.064;2023-07-13T17:18:10;2.20;;;0.90;;
73684;SDS011;61985;51.070;14.064;2023-07-13T17:20:37;2.58;;;1.10;;
73684;SDS011;61985;51.070;14.064;2023-07-13T17:23:11;2.65;;;0.93;;
73684;SDS011;61985;51.070;14.064;2023-07-13T17:25:42;3.80;;;1.10;;
73684;SDS011;61985;51.070;14.064;2023-07-13T17:28:09;2.38;;;1.00;;
73684;SDS011;61985;51.070;14.064;2023-07-13T17:30:35;5.38;;;1.30;;
73684;SDS011;61985;51.070;14.064;2023-07-13T17:33:04;1.65;;;1.20;;
73684;SDS011;61985;51.070;14.064;2023-07-13T17:35:33;3.90;;;1.40;;
73684;SDS011;61985;51.070;14.064;2023-07-13T17:38:01;2.60;;;1.50;;
73684;SDS011;61985;51.070;14.064;2023-07-13T17:40:28;2.15;;;1.30;;
73684;SDS011;61985;51.070;14.064;2023-07-13T17:42:54;2.50;;;1.15;;
73684;SDS011;61985;51.070;14.064;2023-07-13T17:45:21;4.05;;;1.73;;
73684;SDS011;61985;51.070;14.064;2023-07-13T17:47:51;4.60;;;1.63;;
73684;SDS011;61985;51.070;14.064;2023-07-13T17:50:19;3.10;;;1.80;;
73684;SDS011;61985;51.070;14.064;2023-07-13T17:52:53;2.78;;;1.52;;
73684;SDS011;61985;51.070;14.064;2023-07-13T17:55:18;3.53;;;1.77;;
73684;SDS011;61985;51.070;14.064;2023-07-13T17:57:46;2.15;;;1.60;;
73684;SDS011;61985;51.070;14.064;2023-07-13T18:00:18;2.50;;;1.70;;
73684;SDS011;61985;51.070;14.064;2023-07-13T18:02:57;3.00;;;1.83;;
73684;SDS011;61985;51.070;14.064;2023-07-13T18:05:29;6.97;;;3.78;;
73684;SDS011;61985;51.070;14.064;2023-07-13T18:07:55;5.10;;;2.47;;
73684;SDS011;61985;51.070;14.064;2023-07-13T18:10:20;7.65;;;2.10;;
73684;SDS011;61985;51.070;14.064;2023-07-13T18:12:48;8.45;;;1.90;;
73684;SDS011;61985;51.070;14.064;2023-07-13T18:15:16;5.07;;;1.75;;
73684;SDS011;61985;51.070;14.064;2023-07-13T18:17:46;3.15;;;1.80;;
73684;SDS011;61985;51.070;14.064;2023-07-13T18:20:16;4.68;;;1.92;;
73684;SDS011;61985;51.070;14.064;2023-07-13T18:22:43;4.85;;;1.80;;
73684;SDS011;61985;51.070;14.064;2023-07-13T18:25:12;3.63;;;1.80;;
73684;SDS011;61985;51.070;14.064;2023-07-13T18:27:47;2.33;;;1.48;;
73684;SDS011;61985;51.070;14.064;2023-07-13T18:30:13;6.25;;;1.48;;
73684;SDS011;61985;51.070;14.064;2023-07-13T18:32:44;2.35;;;1.30;;
73684;SDS011;61985;51.070;14.064;2023-07-13T18:35:26;6.88;;;1.63;;
73684;SDS011;61985;51.070;14.064;2023-07-13T18:37:54;1.90;;;1.15;;
73684;SDS011;61985;51.070;14.064;2023-07-13T18:40:20;4.70;;;1.45;;
73684;SDS011;61985;51.070;14.064;2023-07-13T18:42:47;3.78;;;1.50;;
73684;SDS011;61985;51.070;14.064;2023-07-13T18:45:15;1.70;;;1.30;;
73684;SDS011;61985;51.070;14.064;2023-07-13T18:47:42;4.20;;;1.42;;
73684;SDS011;61985;51.070;14.064;2023-07-13T18:50:13;4.47;;;1.20;;
73684;SDS011;61985;51.070;14.064;2023-07-13T18:52:46;4.57;;;1.40;;
73684;SDS011;61985;51.070;14.064;2023-07-13T18:55:20;3.17;;;1.40;;
73684;SDS011;61985;51.070;14.064;2023-07-13T18:57:48;5.57;;;1.77;;
73684;SDS011;61985;51.070;14.064;2023-07-13T19:00:19;3.42;;;1.50;;
73684;SDS011;61985;51.070;14.064;2023-07-13T19:02:47;2.17;;;1.30;;
73684;SDS011;61985;51.070;14.064;2023-07-13T19:05:17;4.32;;;1.40;;
73684;SDS011;61985;51.070;14.064;2023-07-13T19:07:47;3.92;;;1.50;;
73684;SDS011;61985;51.070;14.064;2023-07-13T19:10:13;2.08;;;1.30;;
73684;SDS011;61985;51.070;14.064;2023-07-13T19:12:42;1.48;;;1.30;;
73684;SDS011;61985;51.070;14.064;2023-07-13T19:15:16;2.72;;;1.42;;
73684;SDS011;61985;51.070;14.064;2023-07-13T19:17:43;5.47;;;1.50;;
73684;SDS011;61985;51.070;14.064;2023-07-13T19:20:12;4.72;;;1.40;;
73684;SDS011;61985;51.070;14.064;2023-07-13T19:22:39;2.08;;;1.25;;
73684;SDS011;61985;51.070;14.064;2023-07-13T19:25:07;2.22;;;1.40;;
73684;SDS011;61985;51.070;14.064;2023-07-13T19:27:37;3.90;;;1.30;;
73684;SDS011;61985;51.070;14.064;2023-07-13T19:30:02;6.45;;;1.27;;
73684;SDS011;61985;51.070;14.064;2023-07-13T19:32:29;5.22;;;1.38;;
73684;SDS011;61985;51.070;14.064;2023-07-13T19:34:55;3.25;;;1.30;;
73684;SDS011;61985;51.070;14.064;2023-07-13T19:37:21;2.03;;;1.15;;
73684;SDS011;61985;51.070;14.064;2023-07-13T19:39:48;2.58;;;1.15;;
73684;SDS011;61985;51.070;14.064;2023-07-13T19:42:17;1.80;;;1.30;;
73684;SDS011;61985;51.070;14.064;2023-07-13T19:44:45;1.55;;;1.10;;
73684;SDS011;61985;51.070;14.064;2023-07-13T19:47:12;5.28;;;1.52;;
73684;SDS011;61985;51.070;14.064;2023-07-13T19:49:38;3.13;;;1.27;;
73684;SDS011;61985;51.070;14.064;2023-07-13T19:52:10;3.60;;;1.30;;
73684;SDS011;61985;51.070;14.064;2023-07-13T19:54:36;6.10;;;1.15;;
73684;SDS011;61985;51.070;14.064;2023-07-13T19:57:08;3.55;;;1.40;;
73684;SDS011;61985;51.070;14.064;2023-07-13T19:59:38;2.55;;;1.33;;
73684;SDS011;61985;51.070;14.064;2023-07-13T20:02:03;5.00;;;1.52;;
73684;SDS011;61985;51.070;14.064;2023-07-13T20:04:30;4.15;;;1.40;;
73684;SDS011;61985;51.070;14.064;2023-07-13T20:06:55;3.45;;;1.30;;
73684;SDS011;61985;51.070;14.064;2023-07-13T20:09:22;3.22;;;1.30;;
73684;SDS011;61985;51.070;14.064;2023-07-13T20:11:51;2.28;;;1.23;;